createdAt,value
2019-03-31T00:00:15.794Z,97.23
2019-03-31T00:02:44.281Z,88.43
2019-03-31T00:05:13.316Z,91.63
2019-03-31T00:07:41.791Z,91.17
2019-03-31T00:10:10.425Z,85.53
2019-03-31T00:12:39.107Z,92.13
2019-03-31T00:15:10.290Z,85.80
2019-03-31T00:17:38.831Z,95.00
2019-03-31T00:20:07.942Z,86.17
2019-03-31T00:22:36.600Z,89.37
2019-03-31T00:25:06.878Z,92.50
2019-03-31T00:27:35.392Z,92.40
2019-03-31T00:30:06.146Z,87.80
2019-03-31T00:32:34.938Z,92.90
2019-03-31T00:35:03.785Z,92.67
2019-03-31T00:37:33.963Z,92.60
2019-03-31T00:40:04.045Z,97.50
2019-03-31T00:42:32.884Z,95.87
2019-03-31T00:45:01.704Z,94.97
2019-03-31T00:47:30.266Z,84.70
2019-03-31T00:49:59.019Z,90.50
2019-03-31T00:52:27.489Z,93.67
2019-03-31T00:54:55.979Z,82.57
2019-03-31T00:57:24.446Z,90.47
2019-03-31T00:59:52.943Z,83.63
2019-03-31T01:02:23.427Z,91.72
2019-03-31T01:04:52.558Z,83.03
2019-03-31T01:07:23.681Z,94.45
2019-03-31T01:09:55.257Z,89.43
2019-03-31T01:12:25.373Z,99.45
2019-03-31T01:14:54.158Z,92.70
2019-03-31T01:17:24.376Z,90.73
2019-03-31T01:19:54.234Z,91.57
2019-03-31T01:22:22.907Z,97.23
2019-03-31T01:24:51.447Z,95.93
2019-03-31T01:27:20.888Z,94.17
2019-03-31T01:29:49.490Z,94.57
2019-03-31T01:32:18.393Z,97.70
2019-03-31T01:34:47.501Z,97.40
2019-03-31T01:37:19.921Z,95.47
2019-03-31T01:39:47.217Z,94.90
2019-03-31T01:42:15.752Z,98.53
2019-03-31T01:44:44.465Z,90.07
2019-03-31T01:47:13.511Z,88.73
2019-03-31T01:49:42.133Z,98.27
2019-03-31T01:52:10.739Z,98.62
2019-03-31T01:54:39.569Z,90.40
2019-03-31T01:57:08.113Z,97.70
2019-03-31T01:59:36.599Z,89.43
2019-03-31T02:02:07.596Z,91.80
2019-03-31T02:04:36.728Z,99.07
2019-03-31T02:07:07.992Z,97.57
2019-03-31T02:09:37.486Z,98.00
2019-03-31T02:12:06.027Z,104.80
2019-03-31T02:14:34.642Z,96.33
2019-03-31T02:17:03.488Z,97.07
2019-03-31T02:19:32.118Z,103.30
2019-03-31T02:22:00.603Z,103.87
2019-03-31T02:24:29.080Z,108.27
2019-03-31T02:26:59.522Z,103.13
2019-03-31T02:29:28.019Z,99.43
2019-03-31T02:31:56.960Z,109.80
2019-03-31T02:34:25.860Z,111.03
2019-03-31T02:36:54.328Z,109.07
2019-03-31T02:39:23.240Z,121.50
2019-03-31T02:41:51.807Z,105.70
2019-03-31T02:44:20.610Z,110.47
2019-03-31T02:46:49.093Z,104.10
2019-03-31T02:49:17.747Z,96.20
2019-03-31T02:51:46.354Z,96.43
2019-03-31T02:54:14.998Z,93.47
2019-03-31T02:56:44.657Z,98.10
2019-03-31T02:59:15.915Z,99.30
2019-03-31T03:01:45.722Z,90.43
2019-03-31T03:04:16.606Z,106.20
2019-03-31T03:06:47.431Z,95.50
2019-03-31T03:09:17.906Z,96.27
2019-03-31T03:11:49.116Z,94.60
2019-03-31T03:14:18.707Z,89.03
2019-03-31T03:16:47.257Z,92.80
2019-03-31T03:19:15.816Z,86.57
2019-03-31T03:21:44.277Z,92.27
2019-03-31T03:24:13.099Z,87.20
2019-03-31T03:26:41.575Z,82.37
2019-03-31T03:29:10.149Z,80.50
2019-03-31T03:31:38.641Z,88.23
2019-03-31T03:34:08.834Z,77.73
2019-03-31T03:36:37.450Z,74.23
2019-03-31T03:39:08.035Z,72.53
2019-03-31T03:41:36.571Z,71.73
2019-03-31T03:44:05.717Z,67.37
2019-03-31T03:46:34.654Z,62.33
2019-03-31T03:49:03.228Z,63.57
2019-03-31T03:51:31.789Z,61.67
2019-03-31T03:54:00.466Z,53.57
2019-03-31T03:56:29.336Z,70.80
2019-03-31T03:58:58.054Z,61.43
2019-03-31T04:01:27.675Z,58.92
2019-03-31T04:03:56.482Z,56.57
2019-03-31T04:06:25.314Z,70.73
2019-03-31T04:08:53.889Z,58.00
2019-03-31T04:11:24.306Z,54.45
2019-03-31T04:13:53.047Z,58.60
2019-03-31T04:16:21.590Z,58.43
2019-03-31T04:18:50.083Z,62.63
2019-03-31T04:21:18.620Z,56.37
2019-03-31T04:23:47.169Z,56.80
2019-03-31T04:26:15.852Z,50.57
2019-03-31T04:28:44.450Z,50.37
2019-03-31T04:31:13.503Z,54.33
2019-03-31T04:33:51.702Z,58.57
2019-03-31T04:36:12.477Z,49.63
2019-03-31T04:38:42.607Z,47.83
2019-03-31T04:41:11.107Z,54.73
2019-03-31T04:43:40.105Z,41.30
2019-03-31T04:46:09.034Z,41.13
2019-03-31T04:48:37.494Z,47.00
2019-03-31T04:51:06.054Z,41.83
2019-03-31T04:53:34.698Z,44.63
2019-03-31T04:56:04.377Z,45.63
2019-03-31T04:58:33.362Z,31.37
2019-03-31T05:01:01.842Z,51.73
2019-03-31T05:03:30.321Z,42.20
2019-03-31T05:05:58.809Z,54.70
2019-03-31T05:08:27.384Z,42.57
2019-03-31T05:10:55.863Z,49.37
2019-03-31T05:13:24.426Z,42.83
2019-03-31T05:15:53.200Z,35.47
2019-03-31T05:18:21.690Z,47.30
2019-03-31T05:20:50.310Z,48.00
2019-03-31T05:23:19.122Z,50.00
2019-03-31T05:25:47.640Z,50.97
2019-03-31T05:28:16.264Z,44.83
2019-03-31T05:30:45.654Z,47.53
2019-03-31T05:33:14.156Z,56.28
2019-03-31T05:35:42.639Z,57.23
2019-03-31T05:38:11.181Z,59.97
2019-03-31T05:40:39.882Z,49.43
2019-03-31T05:43:08.417Z,47.87
2019-03-31T05:45:37.273Z,44.87
2019-03-31T05:48:05.900Z,44.80
2019-03-31T05:50:34.525Z,52.43
2019-03-31T05:53:03.224Z,56.60
2019-03-31T05:55:31.828Z,51.37
2019-03-31T05:58:00.304Z,53.07
2019-03-31T06:00:35.832Z,58.23
2019-03-31T06:03:05.179Z,49.50
2019-03-31T06:05:33.674Z,50.60
2019-03-31T06:08:02.277Z,47.60
2019-03-31T06:10:30.803Z,47.07
2019-03-31T06:12:59.340Z,50.93
2019-03-31T06:15:27.826Z,58.67
2019-03-31T06:17:56.381Z,51.07
2019-03-31T06:20:25.219Z,48.73
2019-03-31T06:22:53.699Z,45.03
2019-03-31T06:25:24.097Z,48.15
2019-03-31T06:27:53.165Z,39.67
2019-03-31T06:30:22.276Z,48.03
2019-03-31T06:32:50.749Z,38.57
2019-03-31T06:35:19.294Z,43.95
2019-03-31T06:37:47.837Z,47.57
2019-03-31T06:40:16.505Z,45.97
2019-03-31T06:42:45.235Z,40.43
2019-03-31T06:45:13.776Z,49.00
2019-03-31T06:47:42.259Z,33.47
2019-03-31T06:50:11.583Z,39.80
2019-03-31T06:52:40.066Z,43.87
2019-03-31T06:55:09.156Z,42.30
2019-03-31T06:57:37.641Z,40.43
2019-03-31T07:00:09.827Z,40.60
2019-03-31T07:02:38.433Z,35.80
2019-03-31T07:05:10.197Z,30.00
2019-03-31T07:07:38.725Z,33.57
2019-03-31T07:10:08.239Z,28.37
2019-03-31T07:12:37.204Z,37.47
2019-03-31T07:15:08.943Z,37.50
2019-03-31T07:17:38.120Z,44.43
2019-03-31T07:20:09.355Z,31.67
2019-03-31T07:22:38.398Z,43.07
2019-03-31T07:25:12.374Z,42.87
2019-03-31T07:27:41.335Z,43.07
2019-03-31T07:30:18.826Z,32.67
2019-03-31T07:32:47.296Z,30.10
2019-03-31T07:35:18.611Z,39.30
2019-03-31T07:37:47.735Z,32.00
2019-03-31T07:40:19.981Z,43.30
2019-03-31T07:42:52.630Z,36.37
2019-03-31T07:45:19.346Z,39.33
2019-03-31T07:47:48.138Z,34.77
2019-03-31T07:50:18.871Z,26.07
2019-03-31T07:52:47.488Z,25.37
2019-03-31T07:55:16.954Z,39.03
2019-03-31T07:57:45.462Z,30.60
2019-03-31T08:00:19.722Z,28.52
2019-03-31T08:02:48.480Z,24.73
2019-03-31T08:05:17.362Z,20.23
2019-03-31T08:07:46.418Z,25.63
2019-03-31T08:10:16.334Z,26.13
2019-03-31T08:12:44.987Z,27.70
2019-03-31T08:15:13.973Z,22.05
2019-03-31T08:17:42.860Z,18.67
2019-03-31T08:20:14.697Z,24.63
2019-03-31T08:22:43.239Z,27.43
2019-03-31T08:25:13.721Z,25.87
2019-03-31T08:27:42.175Z,19.00
2019-03-31T08:30:13.767Z,18.73
2019-03-31T08:32:42.385Z,21.77
2019-03-31T08:35:11.759Z,14.33
2019-03-31T08:37:40.405Z,17.90
2019-03-31T08:40:10.933Z,22.47
2019-03-31T08:42:39.569Z,19.53
2019-03-31T08:45:09.206Z,19.47
2019-03-31T08:47:38.424Z,10.83
2019-03-31T08:50:08.240Z,14.37
2019-03-31T08:52:37.168Z,20.50
2019-03-31T08:55:06.217Z,14.20
2019-03-31T08:57:35.168Z,21.83
2019-03-31T09:00:08.965Z,18.47
2019-03-31T09:02:37.442Z,10.50
2019-03-31T09:05:08.527Z,17.55
2019-03-31T09:07:37.551Z,12.43
2019-03-31T09:10:08.037Z,15.07
2019-03-31T09:12:37.438Z,15.50
2019-03-31T09:15:09.147Z,12.53
2019-03-31T09:17:38.170Z,12.90
2019-03-31T09:20:07.806Z,10.60
2019-03-31T09:22:36.735Z,17.03
2019-03-31T09:25:06.707Z,11.57
2019-03-31T09:27:35.203Z,11.43
2019-03-31T09:30:08.706Z,14.57
2019-03-31T09:32:38.242Z,17.70
2019-03-31T09:35:11.194Z,12.20
2019-03-31T09:37:40.045Z,15.20
2019-03-31T09:40:11.088Z,15.60
2019-03-31T09:42:39.622Z,15.53
2019-03-31T09:45:09.058Z,13.50
2019-03-31T09:47:38.974Z,16.93
2019-03-31T09:50:10.770Z,12.73
2019-03-31T09:52:39.748Z,9.57
2019-03-31T09:55:10.271Z,16.90
2019-03-31T09:57:39.007Z,15.13
2019-03-31T10:00:13.862Z,17.70
2019-03-31T10:02:42.395Z,16.13
2019-03-31T10:05:11.760Z,16.97
2019-03-31T10:07:40.800Z,11.17
2019-03-31T10:10:11.950Z,13.48
2019-03-31T10:12:40.863Z,10.20
2019-03-31T10:15:10.257Z,11.50
2019-03-31T10:17:38.728Z,13.67
2019-03-31T10:20:08.450Z,11.83
2019-03-31T10:22:36.928Z,9.07
2019-03-31T10:25:07.958Z,12.13
2019-03-31T10:27:36.785Z,13.10
2019-03-31T10:30:07.612Z,11.12
2019-03-31T10:32:36.532Z,11.73
2019-03-31T10:35:07.902Z,12.13
2019-03-31T10:37:36.394Z,10.03
2019-03-31T10:40:08.885Z,12.90
2019-03-31T10:42:37.377Z,12.73
2019-03-31T10:45:07.929Z,16.60
2019-03-31T10:47:36.545Z,11.20
2019-03-31T10:50:07.723Z,11.80
2019-03-31T10:52:36.657Z,13.83
2019-03-31T10:55:07.387Z,9.40
2019-03-31T10:57:35.951Z,15.77
2019-03-31T11:00:09.675Z,13.48
2019-03-31T11:02:38.215Z,13.90
2019-03-31T11:05:07.920Z,14.30
2019-03-31T11:07:36.581Z,11.43
2019-03-31T11:10:06.949Z,7.67
2019-03-31T11:12:35.692Z,9.00
2019-03-31T11:15:07.211Z,13.03
2019-03-31T11:17:35.832Z,11.03
2019-03-31T11:20:06.748Z,12.70
2019-03-31T11:22:37.021Z,8.70
2019-03-31T11:25:20.205Z,12.07
2019-03-31T11:27:37.435Z,7.90
2019-03-31T11:30:08.253Z,6.77
2019-03-31T11:32:37.162Z,9.73
2019-03-31T11:35:06.914Z,7.20
2019-03-31T11:37:35.446Z,7.83
2019-03-31T11:40:07.302Z,8.17
2019-03-31T11:42:36.306Z,10.03
2019-03-31T11:45:07.122Z,7.60
2019-03-31T11:47:35.868Z,5.43
2019-03-31T11:50:07.938Z,5.60
2019-03-31T11:52:36.507Z,5.77
2019-03-31T11:55:08.667Z,5.17
2019-03-31T11:57:37.210Z,7.60
2019-03-31T12:00:10.413Z,7.60
2019-03-31T12:02:39.027Z,7.27
2019-03-31T12:05:08.029Z,5.73
2019-03-31T12:07:46.679Z,8.17
2019-03-31T12:10:10.312Z,9.10
2019-03-31T12:12:38.845Z,7.03
2019-03-31T12:15:08.577Z,8.17
2019-03-31T12:17:37.649Z,5.93
2019-03-31T12:20:08.361Z,10.77
2019-03-31T12:22:37.037Z,5.53
2019-03-31T12:25:09.293Z,8.27
2019-03-31T12:27:37.828Z,5.30
2019-03-31T12:30:10.298Z,9.50
2019-03-31T12:32:39.014Z,6.93
2019-03-31T12:35:09.707Z,4.97
2019-03-31T12:37:42.625Z,9.87
2019-03-31T12:40:11.496Z,6.00
2019-03-31T12:42:41.658Z,5.23
2019-03-31T12:45:10.577Z,4.30
2019-03-31T12:47:39.310Z,5.83
2019-03-31T12:50:08.619Z,8.07
2019-03-31T12:52:46.613Z,4.57
2019-03-31T12:55:08.726Z,12.00
2019-03-31T12:57:37.217Z,10.03
2019-03-31T13:00:07.953Z,5.63
2019-03-31T13:02:36.615Z,7.30
2019-03-31T13:05:06.883Z,5.33
2019-03-31T13:07:35.416Z,4.67
2019-03-31T13:10:06.084Z,8.00
2019-03-31T13:12:35.125Z,8.60
2019-03-31T13:15:06.531Z,8.63
2019-03-31T13:17:35.449Z,6.85
2019-03-31T13:20:06.058Z,8.33
2019-03-31T13:22:34.560Z,7.27
2019-03-31T13:25:04.074Z,11.57
2019-03-31T13:27:32.675Z,6.40
2019-03-31T13:30:01.135Z,8.17
2019-03-31T13:32:29.873Z,7.60
2019-03-31T13:34:58.365Z,8.47
2019-03-31T13:37:27.148Z,7.33
2019-03-31T13:39:55.638Z,6.40
2019-03-31T13:42:24.111Z,4.87
2019-03-31T13:44:52.577Z,8.20
2019-03-31T13:47:21.163Z,7.33
2019-03-31T13:49:49.704Z,6.30
2019-03-31T13:52:18.342Z,8.73
2019-03-31T13:54:46.828Z,10.53
2019-03-31T13:57:15.707Z,7.60
2019-03-31T13:59:45.364Z,10.37
2019-03-31T14:02:13.969Z,10.17
2019-03-31T14:04:51.384Z,13.60
2019-03-31T14:07:12.627Z,9.40
2019-03-31T14:09:41.175Z,6.83
2019-03-31T14:12:09.801Z,16.00
2019-03-31T14:14:38.280Z,8.90
2019-03-31T14:17:06.836Z,8.73
2019-03-31T14:19:35.389Z,7.47
2019-03-31T14:22:05.185Z,8.27
2019-03-31T14:24:33.715Z,10.07
2019-03-31T14:27:02.310Z,10.00
2019-03-31T14:29:30.773Z,6.87
2019-03-31T14:31:59.765Z,8.50
2019-03-31T14:34:28.234Z,7.97
2019-03-31T14:36:56.974Z,8.63
2019-03-31T14:39:25.590Z,8.63
2019-03-31T14:41:54.073Z,6.30
2019-03-31T14:44:22.522Z,5.47
2019-03-31T14:46:51.399Z,12.50
2019-03-31T14:49:19.938Z,8.00
2019-03-31T14:51:48.519Z,4.57
2019-03-31T14:54:17.168Z,12.27
2019-03-31T14:56:45.729Z,6.60
2019-03-31T14:59:14.229Z,10.15
2019-03-31T15:01:42.716Z,14.70
2019-03-31T15:04:11.257Z,7.70
2019-03-31T15:06:40.189Z,5.40
2019-03-31T15:09:09.128Z,6.23
2019-03-31T15:11:37.642Z,7.83
2019-03-31T15:14:07.856Z,13.40
2019-03-31T15:16:36.453Z,8.43
2019-03-31T15:19:05.553Z,7.67
2019-03-31T15:21:34.334Z,8.17
2019-03-31T15:24:03.232Z,10.33
2019-03-31T15:26:31.782Z,8.23
2019-03-31T15:29:00.259Z,12.37
2019-03-31T15:31:28.796Z,8.97
2019-03-31T15:33:57.327Z,9.50
2019-03-31T15:36:25.856Z,6.90
2019-03-31T15:39:08.186Z,5.73
2019-03-31T15:41:27.195Z,8.87
2019-03-31T15:43:55.726Z,10.53
2019-03-31T15:46:24.765Z,13.50
2019-03-31T15:48:53.643Z,7.93
2019-03-31T15:51:22.711Z,12.40
2019-03-31T15:53:51.345Z,17.20
2019-03-31T15:56:19.821Z,10.45
2019-03-31T15:58:48.295Z,10.93
2019-03-31T16:01:16.901Z,9.45
2019-03-31T16:03:45.433Z,12.97
2019-03-31T16:06:13.990Z,9.77
2019-03-31T16:08:42.802Z,13.83
2019-03-31T16:11:11.541Z,8.75
2019-03-31T16:13:40.260Z,4.80
2019-03-31T16:16:08.872Z,14.03
2019-03-31T16:18:37.368Z,11.87
2019-03-31T16:21:05.982Z,9.67
2019-03-31T16:23:34.462Z,8.53
2019-03-31T16:26:02.953Z,6.43
2019-03-31T16:28:31.426Z,9.53
2019-03-31T16:30:59.981Z,8.03
2019-03-31T16:33:28.461Z,12.77
2019-03-31T16:35:56.987Z,12.83
2019-03-31T16:38:26.120Z,7.90
2019-03-31T16:40:54.616Z,7.93
2019-03-31T16:43:23.187Z,6.97
2019-03-31T16:45:51.742Z,8.77
2019-03-31T16:48:20.303Z,9.80
2019-03-31T16:50:48.767Z,8.33
2019-03-31T16:53:17.720Z,11.07
2019-03-31T16:55:46.247Z,9.47
2019-03-31T16:58:14.717Z,11.40
2019-03-31T17:00:43.270Z,14.87
2019-03-31T17:03:12.209Z,10.17
2019-03-31T17:05:40.686Z,9.83
2019-03-31T17:08:09.794Z,17.60
2019-03-31T17:10:38.271Z,15.07
2019-03-31T17:13:06.894Z,12.30
2019-03-31T17:15:35.541Z,10.27
2019-03-31T17:18:05.071Z,14.77
2019-03-31T17:20:33.583Z,10.67
2019-03-31T17:23:02.121Z,8.93
2019-03-31T17:25:30.728Z,8.13
2019-03-31T17:27:59.203Z,7.93
2019-03-31T17:30:27.767Z,11.47
2019-03-31T17:32:56.307Z,10.93
2019-03-31T17:35:25.055Z,9.50
2019-03-31T17:37:54.062Z,10.63
2019-03-31T17:40:23.081Z,10.98
2019-03-31T17:42:51.550Z,8.63
2019-03-31T17:45:20.044Z,16.67
2019-03-31T17:47:48.545Z,11.37
2019-03-31T17:50:17.187Z,15.57
2019-03-31T17:52:45.661Z,12.93
2019-03-31T17:55:14.285Z,9.70
2019-03-31T17:57:42.969Z,9.67
2019-03-31T18:00:12.628Z,6.60
2019-03-31T18:02:41.130Z,7.07
2019-03-31T18:05:10.209Z,7.62
2019-03-31T18:07:38.831Z,10.03
2019-03-31T18:10:20.165Z,7.53
2019-03-31T18:12:40.366Z,9.00
2019-03-31T18:15:09.277Z,7.67
2019-03-31T18:17:38.121Z,10.87
2019-03-31T18:20:07.961Z,13.63
2019-03-31T18:22:36.538Z,14.30
2019-03-31T18:25:08.635Z,20.68
2019-03-31T18:27:37.597Z,13.83
2019-03-31T18:30:07.279Z,13.60
2019-03-31T18:32:35.752Z,13.20
2019-03-31T18:35:07.032Z,12.03
2019-03-31T18:37:35.517Z,9.83
2019-03-31T18:40:07.157Z,16.07
2019-03-31T18:42:35.908Z,14.17
2019-03-31T18:45:06.785Z,10.60
2019-03-31T18:47:35.346Z,8.57
2019-03-31T18:50:07.180Z,9.40
2019-03-31T18:52:35.796Z,7.27
2019-03-31T18:55:16.715Z,17.27
2019-03-31T18:57:52.477Z,12.27
2019-03-31T19:00:22.601Z,9.33
2019-03-31T19:03:10.742Z,12.53
2019-03-31T19:05:40.952Z,13.10
2019-03-31T19:08:15.517Z,17.80
2019-03-31T19:11:04.295Z,12.83
2019-03-31T19:13:34.381Z,15.57
2019-03-31T19:16:04.501Z,15.00
2019-03-31T19:18:37.417Z,10.70
2019-03-31T19:21:11.045Z,8.63
2019-03-31T19:23:55.903Z,9.07
2019-03-31T19:26:48.163Z,9.23
2019-03-31T19:29:17.257Z,7.17
2019-03-31T19:31:50.311Z,6.93
2019-03-31T19:34:29.194Z,12.43
2019-03-31T19:37:01.869Z,6.23
2019-03-31T19:39:37.863Z,9.20
2019-03-31T19:42:10.726Z,12.67
2019-03-31T19:44:43.406Z,9.13
2019-03-31T19:47:29.656Z,8.38
2019-03-31T19:50:08.481Z,14.13
2019-03-31T19:52:54.600Z,10.13
2019-03-31T19:55:41.097Z,12.03
2019-03-31T19:58:13.946Z,10.60
2019-03-31T20:00:47.355Z,11.40
2019-03-31T20:03:33.662Z,8.97
2019-03-31T20:06:09.638Z,9.87
2019-03-31T20:08:54.838Z,7.53
2019-03-31T20:11:33.712Z,5.47
2019-03-31T20:14:06.792Z,6.80
2019-03-31T20:16:36.973Z,5.97
2019-03-31T20:19:23.555Z,11.28
2019-03-31T20:21:54.069Z,7.47
2019-03-31T20:24:24.232Z,13.90
2019-03-31T20:27:10.692Z,16.10
2019-03-31T20:29:43.441Z,5.97
2019-03-31T20:32:19.773Z,9.53
2019-03-31T20:34:49.970Z,7.03
2019-03-31T20:37:25.947Z,9.48
2019-03-31T20:39:58.950Z,8.07
2019-03-31T20:42:34.957Z,6.53
2019-03-31T20:45:05.129Z,7.53
2019-03-31T20:47:33.777Z,8.60
2019-03-31T20:50:02.322Z,9.27
2019-03-31T20:52:30.951Z,12.47
2019-03-31T20:54:59.407Z,11.80
2019-03-31T20:57:27.945Z,12.50
2019-03-31T20:59:56.604Z,6.67
2019-03-31T21:02:25.904Z,10.30
2019-03-31T21:04:54.402Z,9.53
2019-03-31T21:07:23.270Z,9.03
2019-03-31T21:09:51.758Z,8.27
2019-03-31T21:12:20.624Z,8.17
2019-03-31T21:14:49.498Z,10.43
2019-03-31T21:17:18.140Z,12.82
2019-03-31T21:19:47.005Z,13.17
2019-03-31T21:22:15.549Z,4.75
2019-03-31T21:24:44.301Z,8.57
2019-03-31T21:27:12.833Z,8.45
2019-03-31T21:29:41.774Z,9.50
2019-03-31T21:32:10.314Z,10.10
2019-03-31T21:34:39.113Z,8.47
2019-03-31T21:37:07.646Z,12.93
2019-03-31T21:39:36.482Z,7.50
2019-03-31T21:42:05.817Z,10.53
2019-03-31T21:44:34.367Z,16.47
2019-03-31T21:47:03.033Z,11.40
2019-03-31T21:49:31.612Z,10.93
2019-03-31T21:52:00.146Z,8.93
2019-03-31T21:54:28.615Z,12.50
2019-03-31T21:56:57.336Z,11.70
2019-03-31T21:59:25.857Z,6.97
2019-03-31T22:01:54.445Z,4.93
2019-03-31T22:04:22.940Z,8.23
2019-03-31T22:06:51.567Z,13.63
2019-03-31T22:09:20.034Z,17.33
2019-03-31T22:11:48.496Z,11.20
2019-03-31T22:14:17.139Z,6.28
2019-03-31T22:16:45.997Z,11.23
2019-03-31T22:19:14.552Z,13.32
2019-03-31T22:21:43.075Z,8.77
2019-03-31T22:24:11.565Z,16.12
2019-03-31T22:26:40.293Z,12.43
2019-03-31T22:29:08.980Z,9.77
2019-03-31T22:31:37.812Z,7.53
2019-03-31T22:34:06.361Z,15.37
2019-03-31T22:36:34.822Z,10.23
2019-03-31T22:39:03.292Z,8.83
2019-03-31T22:41:31.785Z,12.30
2019-03-31T22:44:01.409Z,10.27
2019-03-31T22:46:30.107Z,7.30
2019-03-31T22:48:58.677Z,16.03
2019-03-31T22:51:27.533Z,9.67
2019-03-31T22:53:56.280Z,8.20
2019-03-31T22:56:25.249Z,3.90
2019-03-31T22:58:53.713Z,16.15
2019-03-31T23:01:22.322Z,6.87
2019-03-31T23:03:50.823Z,14.83
2019-03-31T23:06:20.898Z,12.93
2019-03-31T23:08:49.425Z,5.97
2019-03-31T23:11:18.281Z,6.07
2019-03-31T23:13:46.763Z,13.13
2019-03-31T23:16:15.416Z,7.73
2019-03-31T23:18:43.960Z,14.87
2019-03-31T23:21:12.410Z,17.48
2019-03-31T23:23:40.903Z,10.40
2019-03-31T23:26:09.611Z,14.37
2019-03-31T23:28:39.713Z,10.20
2019-03-31T23:31:08.313Z,15.50
2019-03-31T23:33:36.778Z,15.10
2019-03-31T23:36:05.793Z,9.53
2019-03-31T23:38:34.271Z,12.00
2019-03-31T23:41:02.726Z,12.03
2019-03-31T23:43:31.259Z,6.73
2019-03-31T23:45:59.757Z,7.40
2019-03-31T23:48:28.296Z,13.43
2019-03-31T23:50:56.769Z,10.03
2019-03-31T23:53:25.397Z,9.47
2019-03-31T23:55:53.940Z,8.50
2019-03-31T23:58:22.413Z,8.27
